Time;durP1;ratioP1;P1;durP2;ratioP2;P2;SDS_P1;SDS_P2;PMS_P1;PMS_P2;Temp;Humidity;BMP_temperature;BMP_pressure;BME280_temperature;BME280_humidity;BME280_pressure;Samples;Min_cycle;Max_cycle;Signal;HPM_P1;HPM_P2
2022/06/14 00:01:52;;;;;;;0.95;0.30;;;16.30;91.60;;;;;;5029569;27;20063;-71
2022/06/14 00:04:18;;;;;;;2.70;0.40;;;16.30;91.30;;;;;;5118608;27;20386;-72
2022/06/14 00:06:46;;;;;;;1.33;0.28;;;16.30;91.00;;;;;;5041542;27;20031;-71
2022/06/14 00:09:12;;;;;;;0.80;0.30;;;16.30;90.70;;;;;;5041872;27;20046;-72
2022/06/14 00:11:40;;;;;;;1.00;0.35;;;16.30;90.60;;;;;;5037129;27;20268;-72
2022/06/14 00:14:09;;;;;;;0.80;0.28;;;16.30;90.80;;;;;;5035117;27;20033;-71
2022/06/14 00:16:37;;;;;;;1.02;0.32;;;16.30;90.40;;;;;;5032564;27;20029;-71
2022/06/14 00:19:05;;;;;;;0.85;0.82;;;16.30;90.30;;;;;;5030487;27;20029;-71
2022/06/14 00:21:32;;;;;;;4.13;0.50;;;16.20;90.10;;;;;;5046381;27;20035;-72
2022/06/14 00:23:59;;;;;;;1.05;0.30;;;16.20;90.20;;;;;;5037447;27;20029;-72
2022/06/14 00:26:26;;;;;;;1.52;0.35;;;16.20;90.20;;;;;;5033975;27;20063;-72
2022/06/14 00:28:52;;;;;;;1.63;0.30;;;16.20;90.20;;;;;;5040971;27;20063;-72
2022/06/14 00:31:22;;;;;;;1.50;0.50;;;16.20;90.20;;;;;;5026341;27;20075;-71
2022/06/14 00:33:49;;;;;;;1.05;0.30;;;16.20;90.20;;;;;;5045156;27;20049;-71
2022/06/14 00:36:20;;;;;;;1.67;0.40;;;16.20;90.40;;;;;;5044222;27;20476;-71
2022/06/14 00:38:47;;;;;;;2.88;0.77;;;16.20;90.30;;;;;;5027828;27;20029;-71
2022/06/14 00:41:28;;;;;;;2.33;0.70;;;16.20;90.20;;;;;;5024987;28;20468;-71
2022/06/14 00:43:55;;;;;;;1.35;0.55;;;16.20;90.20;;;;;;5040852;27;20556;-72
2022/06/14 00:46:26;;;;;;;3.30;1.00;;;16.20;90.10;;;;;;5026787;27;20038;-71
2022/06/14 00:49:03;;;;;;;1.40;0.30;;;16.20;90.00;;;;;;5039952;27;20050;-71
2022/06/14 00:51:34;;;;;;;1.33;0.30;;;16.20;90.10;;;;;;5038089;27;20061;-71
2022/06/14 00:54:21;;;;;;;1.80;0.50;;;16.20;90.20;;;;;;5035278;27;20479;-71
2022/06/14 00:57:14;;;;;;;3.15;0.85;;;16.20;90.30;;;;;;5049305;27;20034;-70
2022/06/14 00:59:43;;;;;;;1.40;0.45;;;16.20;90.30;;;;;;5045109;27;20752;-70
2022/06/14 01:02:25;;;;;;;2.50;0.70;;;16.20;90.30;;;;;;5038508;27;20503;-70
2022/06/14 01:04:52;;;;;;;3.42;0.70;;;16.20;90.40;;;;;;5032184;27;20039;-70
2022/06/14 01:07:21;;;;;;;4.93;1.08;;;16.20;90.50;;;;;;5044314;27;20030;-71
2022/06/14 01:09:47;;;;;;;0.98;0.63;;;16.20;90.60;;;;;;5017948;27;20046;-70
2022/06/14 01:12:18;;;;;;;0.82;0.55;;;16.20;90.70;;;;;;5030900;27;20030;-71
2022/06/14 01:15:06;;;;;;;6.57;1.88;;;16.20;90.70;;;;;;5039780;27;20023;-70
2022/06/14 01:17:46;;;;;;;1.52;0.60;;;16.20;90.70;;;;;;5034730;27;20077;-70
2022/06/14 01:20:17;;;;;;;6.68;0.88;;;16.20;90.70;;;;;;5035691;27;20132;-71
2022/06/14 01:22:44;;;;;;;4.40;0.90;;;16.20;90.70;;;;;;5038061;27;20024;-70
2022/06/14 01:25:11;;;;;;;2.67;0.50;;;16.20;90.80;;;;;;5039139;27;20072;-70
2022/06/14 01:27:39;;;;;;;5.68;2.65;;;16.20;90.80;;;;;;5109560;27;20079;-70
2022/06/14 01:30:18;;;;;;;3.25;0.60;;;16.30;90.90;;;;;;5037093;27;20037;-71
2022/06/14 01:32:50;;;;;;;5.00;1.05;;;16.20;90.90;;;;;;5066522;27;20394;-72
2022/06/14 01:35:35;;;;;;;4.45;0.88;;;16.20;90.90;;;;;;5045049;27;20037;-72
2022/06/14 01:38:07;;;;;;;1.40;0.90;;;16.30;90.90;;;;;;5037213;27;20026;-71
2022/06/14 01:41:03;;;;;;;1.83;0.85;;;16.30;91.10;;;;;;5038584;27;20033;-70
2022/06/14 01:43:57;;;;;;;8.02;1.35;;;16.30;90.80;;;;;;5038020;27;20034;-70
2022/06/14 01:46:25;;;;;;;2.28;0.70;;;16.20;90.70;;;;;;5058288;27;20030;-71
2022/06/14 01:52:29;;;;;;;1.13;0.68;;;16.20;90.80;;;;;;5034637;27;20523;-71
2022/06/14 01:54:59;;;;;;;11.20;1.58;;;16.30;90.80;;;;;;5028211;27;20034;-71
2022/06/14 01:57:37;;;;;;;5.90;1.55;;;16.30;90.90;;;;;;5045514;27;20030;-71
2022/06/14 02:00:52;;;;;;;5.20;1.05;;;16.30;91.00;;;;;;5032275;27;20384;-71
2022/06/14 02:06:38;;;;;;;6.85;1.77;;;16.30;91.20;;;;;;5030340;27;20149;-70
2022/06/14 02:10:11;;;;;;;12.18;2.03;;;16.20;91.20;;;;;;5027898;28;20042;-71
2022/06/14 02:13:13;;;;;;;9.75;1.85;;;16.30;91.40;;;;;;5041999;27;20568;-71
2022/06/14 02:16:06;;;;;;;3.92;1.48;;;16.20;91.60;;;;;;5038119;27;20029;-70
2022/06/14 02:19:01;;;;;;;3.40;1.05;;;16.20;91.70;;;;;;5031013;27;20403;-71
2022/06/14 02:22:07;;;;;;;3.70;0.98;;;16.30;91.70;;;;;;5032920;27;20502;-71
2022/06/14 02:25:23;;;;;;;3.63;1.27;;;16.20;91.80;;;;;;5037137;27;20042;-69
2022/06/14 02:28:13;;;;;;;8.45;1.52;;;16.20;91.70;;;;;;5029248;28;20489;-69
2022/06/14 02:31:28;;;;;;;5.38;1.27;;;16.20;91.50;;;;;;5041656;28;20215;-70
2022/06/14 02:34:37;;;;;;;9.30;1.35;;;16.20;91.50;;;;;;5029999;28;20400;-71
2022/06/14 02:37:43;;;;;;;5.10;0.95;;;16.20;91.40;;;;;;5036629;28;20084;-70
2022/06/14 02:40:52;;;;;;;3.75;0.77;;;16.10;91.10;;;;;;5032114;28;20140;-69
2022/06/14 02:44:10;;;;;;;3.03;1.00;;;16.10;90.70;;;;;;5035764;28;20022;-71
2022/06/14 02:47:23;;;;;;;2.63;1.25;;;16.10;90.60;;;;;;5025988;28;20078;-71
2022/06/14 02:50:29;;;;;;;2.42;0.82;;;16.10;90.50;;;;;;5044896;28;20046;-71
2022/06/14 02:53:35;;;;;;;1.30;0.63;;;16.10;90.30;;;;;;5036833;28;20052;-71
2022/06/14 02:56:21;;;;;;;4.88;1.25;;;16.10;90.20;;;;;;5038149;28;20042;-72
2022/06/14 02:59:26;;;;;;;2.90;1.02;;;16.10;90.10;;;;;;5036154;28;20029;-71
2022/06/14 03:02:47;;;;;;;2.35;0.68;;;16.10;90.00;;;;;;5030483;28;20045;-70
2022/06/14 03:05:55;;;;;;;4.18;1.08;;;16.00;89.80;;;;;;5027024;28;20043;-71
2022/06/14 03:09:07;;;;;;;3.58;1.08;;;16.00;89.70;;;;;;5034335;28;20038;-71
2022/06/14 03:11:46;;;;;;;2.60;0.95;;;16.00;89.80;;;;;;5042998;28;20471;-71
2022/06/14 03:14:50;;;;;;;7.57;1.80;;;16.00;89.80;;;;;;5031707;28;20079;-71
2022/06/14 03:18:11;;;;;;;3.05;1.30;;;16.00;89.80;;;;;;5024952;28;20037;-71
2022/06/14 03:21:04;;;;;;;4.50;1.65;;;16.00;89.80;;;;;;5029929;28;20037;-71
2022/06/14 03:23:50;;;;;;;7.80;2.97;;;16.10;89.90;;;;;;5028384;28;20094;-71
2022/06/14 03:27:17;;;;;;;3.97;1.48;;;16.00;89.70;;;;;;5027542;28;20026;-71
2022/06/14 03:30:10;;;;;;;4.20;1.10;;;16.00;90.00;;;;;;5048347;28;20075;-70
2022/06/14 03:32:59;;;;;;;4.57;1.67;;;15.90;89.30;;;;;;5041602;28;20120;-69
2022/06/14 03:36:08;;;;;;;8.32;1.38;;;15.90;89.30;;;;;;5025176;28;20524;-70
2022/06/14 03:39:08;;;;;;;6.30;1.52;;;15.90;89.20;;;;;;5032968;28;20064;-71
2022/06/14 03:42:14;;;;;;;2.47;0.90;;;15.90;89.20;;;;;;5030415;27;20529;-71
2022/06/14 03:45:20;;;;;;;5.65;1.63;;;15.90;89.20;;;;;;5035405;27;20585;-72
2022/06/14 03:48:26;;;;;;;4.50;1.45;;;15.90;89.10;;;;;;5039081;27;20657;-71
2022/06/14 03:51:12;;;;;;;5.43;0.95;;;15.90;88.90;;;;;;5034031;27;20103;-70
2022/06/14 03:54:27;;;;;;;4.38;1.48;;;15.80;88.90;;;;;;5045237;27;20026;-70
2022/06/14 03:57:09;;;;;;;4.43;0.80;;;15.80;88.90;;;;;;5042908;27;20404;-71
2022/06/14 04:00:04;;;;;;;7.35;1.23;;;15.80;88.90;;;;;;5031249;27;20049;-71
2022/06/14 04:03:07;;;;;;;5.57;1.02;;;15.80;88.80;;;;;;5038695;27;20428;-71
2022/06/14 04:06:24;;;;;;;5.82;1.60;;;15.80;88.90;;;;;;5029081;27;20490;-72
2022/06/14 04:09:54;;;;;;;7.05;1.13;;;15.80;88.80;;;;;;5031094;27;20041;-72
2022/06/14 04:12:40;;;;;;;7.03;0.73;;;15.80;88.90;;;;;;5057474;27;20060;-75
2022/06/14 04:16:08;;;;;;;3.70;1.27;;;15.80;88.90;;;;;;5042427;27;20037;-77
2022/06/14 04:19:06;;;;;;;;;;;15.70;88.80;;;;;;5033720;27;20022;-69
2022/06/14 04:22:04;;;;;;;13.75;1.40;;;15.80;88.90;;;;;;5039255;27;20358;-72
2022/06/14 04:25:20;;;;;;;18.25;10.98;;;15.80;89.60;;;;;;5061001;27;20049;-71
2022/06/14 04:27:49;;;;;;;11.60;7.10;;;15.70;90.30;;;;;;5042915;27;20618;-72
2022/06/14 04:30:36;;;;;;;6.03;2.75;;;15.70;90.50;;;;;;5043416;27;20044;-68
2022/06/14 04:33:39;;;;;;;3.75;1.75;;;15.70;90.60;;;;;;5038001;27;20079;-70
2022/06/14 04:36:17;;;;;;;6.35;1.38;;;15.70;90.60;;;;;;5040479;27;20116;-68
2022/06/14 04:39:14;;;;;;;5.63;1.10;;;15.70;90.60;;;;;;5030866;27;20108;-73
2022/06/14 04:42:20;;;;;;;2.42;0.65;;;15.70;90.40;;;;;;5087301;27;20037;-69
2022/06/14 04:44:46;;;;;;;4.90;1.08;;;15.80;90.30;;;;;;5029749;27;20035;-70
2022/06/14 04:47:52;;;;;;;3.05;1.55;;;15.70;90.20;;;;;;5029114;27;20416;-69
2022/06/14 04:50:33;;;;;;;8.25;1.55;;;15.70;90.10;;;;;;5035349;27;20050;-69
2022/06/14 04:53:42;;;;;;;5.88;0.90;;;15.70;90.10;;;;;;5088288;28;20485;-70
2022/06/14 04:56:57;;;;;;;3.83;1.30;;;15.70;90.10;;;;;;5048366;27;20075;-70
2022/06/14 05:00:06;;;;;;;10.77;1.98;;;15.70;90.60;;;;;;5032429;27;20141;-67
2022/06/14 05:03:04;;;;;;;12.77;3.00;;;15.70;90.80;;;;;;5057123;27;20046;-69
2022/06/14 05:06:13;;;;;;;2.75;0.80;;;15.70;91.00;;;;;;5029215;27;20041;-70
2022/06/14 05:09:00;;;;;;;3.55;2.28;;;15.70;91.10;;;;;;5033823;27;20049;-70
2022/06/14 05:11:52;;;;;;;4.65;0.90;;;15.70;91.20;;;;;;5031320;27;20125;-70
2022/06/14 05:14:44;;;;;;;2.67;1.23;;;15.70;91.00;;;;;;5033686;27;20523;-70
2022/06/14 05:18:01;;;;;;;3.92;1.33;;;15.70;90.90;;;;;;5038710;27;20500;-71
2022/06/14 05:20:28;;;;;;;3.92;1.17;;;15.70;90.70;;;;;;5038614;27;20079;-70
2022/06/14 05:23:21;;;;;;;8.32;1.30;;;15.70;90.50;;;;;;5035106;27;20032;-70
2022/06/14 05:26:07;;;;;;;2.35;0.63;;;15.70;90.40;;;;;;5040731;27;20030;-71
2022/06/14 05:28:57;;;;;;;2.05;0.65;;;15.70;90.20;;;;;;5034951;27;20029;-70
2022/06/14 05:31:49;;;;;;;3.70;0.90;;;15.70;90.10;;;;;;5017682;28;20082;-68
2022/06/14 05:34:34;;;;;;;1.08;0.60;;;15.70;90.00;;;;;;5044357;27;20029;-69
2022/06/14 05:37:23;;;;;;;3.88;0.75;;;15.60;90.00;;;;;;5029227;28;20034;-69
2022/06/14 05:40:12;;;;;;;2.80;0.90;;;15.60;90.00;;;;;;5040023;27;20031;-70
2022/06/14 05:43:18;;;;;;;9.05;0.80;;;15.60;90.10;;;;;;5041276;27;20079;-70
2022/06/14 05:46:04;;;;;;;2.13;1.08;;;15.60;90.10;;;;;;5043430;27;20035;-66
2022/06/14 05:49:11;;;;;;;18.02;1.90;;;15.60;90.30;;;;;;5046211;27;20468;-69
2022/06/14 05:52:19;;;;;;;8.55;1.63;;;15.60;90.30;;;;;;5044646;27;20491;-69
2022/06/14 05:55:18;;;;;;;4.22;1.30;;;15.60;90.70;;;;;;5048576;27;20084;-69
2022/06/14 05:58:10;;;;;;;4.43;1.75;;;15.60;91.00;;;;;;5045043;27;20611;-70
2022/06/14 06:01:28;;;;;;;2.58;1.02;;;15.60;91.30;;;;;;5037613;28;20029;-69
2022/06/14 06:04:34;;;;;;;3.22;0.70;;;15.60;91.40;;;;;;5031421;28;20098;-70
2022/06/14 06:07:40;;;;;;;1.77;1.05;;;15.60;91.30;;;;;;5029750;27;20117;-68
2022/06/14 06:10:56;;;;;;;2.78;0.85;;;15.60;91.40;;;;;;5035244;27;20096;-69
2022/06/14 06:13:52;;;;;;;3.45;0.70;;;15.60;91.30;;;;;;5049122;27;20084;-70
2022/06/14 06:17:03;;;;;;;1.55;0.70;;;15.50;91.30;;;;;;5037135;27;20049;-70
2022/06/14 06:20:14;;;;;;;3.35;0.88;;;15.50;91.30;;;;;;5037150;27;20025;-70
2022/06/14 06:22:44;;;;;;;5.32;0.50;;;15.60;91.30;;;;;;5030774;27;20022;-69
2022/06/14 06:25:50;;;;;;;2.08;0.75;;;15.60;91.30;;;;;;5045183;27;20482;-68
2022/06/14 06:28:38;;;;;;;3.53;1.27;;;15.60;91.30;;;;;;5045291;27;20026;-69
2022/06/14 06:31:05;;;;;;;3.08;0.90;;;15.60;91.30;;;;;;5041001;27;20048;-70
2022/06/14 06:33:40;;;;;;;35.65;26.38;;;15.60;91.40;;;;;;5039699;27;20026;-67
2022/06/14 06:36:34;;;;;;;20.55;9.23;;;15.60;91.30;;;;;;5031197;28;20082;-70
2022/06/14 06:39:21;;;;;;;9.05;5.13;;;15.50;91.00;;;;;;5033569;28;20488;-69
2022/06/14 06:41:54;;;;;;;7.38;2.08;;;15.50;91.00;;;;;;5032252;28;20466;-70
2022/06/14 06:44:36;;;;;;;3.83;1.40;;;15.50;91.00;;;;;;5024975;28;20459;-67
2022/06/14 06:47:28;;;;;;;2.17;1.08;;;15.50;91.10;;;;;;5025636;28;20476;-69
2022/06/14 06:50:14;;;;;;;2.42;1.15;;;15.60;91.10;;;;;;5081382;28;20068;-70
2022/06/14 06:52:52;;;;;;;3.08;1.77;;;15.60;91.10;;;;;;5031276;28;20034;-70
2022/06/14 06:56:20;;;;;;;6.20;2.97;;;15.60;91.00;;;;;;5021728;28;20034;-70
2022/06/14 06:59:03;;;;;;;8.98;4.22;;;15.60;90.90;;;;;;5030056;28;20122;-71
2022/06/14 07:01:38;;;;;;;5.15;3.88;;;15.60;90.70;;;;;;5026252;28;20075;-70
2022/06/14 07:04:17;;;;;;;4.50;2.78;;;15.60;90.60;;;;;;5028192;28;20046;-70
2022/06/14 07:06:50;;;;;;;8.35;3.10;;;15.50;90.50;;;;;;5027969;28;20477;-70
2022/06/14 07:09:17;;;;;;;4.03;2.45;;;15.60;90.50;;;;;;5030179;28;20037;-70
2022/06/14 07:11:47;;;;;;;12.38;2.70;;;15.50;90.50;;;;;;5027252;28;20117;-70
2022/06/14 07:14:30;;;;;;;2.95;1.88;;;15.50;90.50;;;;;;5017102;28;20455;-70
2022/06/14 07:17:11;;;;;;;5.65;1.95;;;15.50;90.80;;;;;;5025787;27;20049;-70
2022/06/14 07:19:58;;;;;;;4.35;1.38;;;15.60;91.00;;;;;;5032193;27;20376;-70
2022/06/14 07:22:48;;;;;;;4.53;1.23;;;15.60;91.10;;;;;;5028554;27;20469;-70
2022/06/14 07:25:52;;;;;;;1.38;0.60;;;15.60;91.20;;;;;;5020029;27;20056;-70
2022/06/14 07:28:28;;;;;;;4.47;0.75;;;15.60;91.10;;;;;;5025251;27;20030;-69
2022/06/14 07:31:00;;;;;;;2.88;0.77;;;15.60;91.10;;;;;;5028608;27;20047;-71
2022/06/14 07:33:29;;;;;;;1.83;0.60;;;15.60;91.00;;;;;;5024472;27;20026;-70
2022/06/14 07:36:04;;;;;;;1.95;0.60;;;15.60;90.90;;;;;;5037527;27;21260;-71
2022/06/14 07:38:48;;;;;;;2.28;0.40;;;15.60;90.80;;;;;;5034243;27;20034;-69
2022/06/14 07:41:15;;;;;;;2.97;0.45;;;15.60;90.70;;;;;;5028491;27;20135;-71
2022/06/14 07:44:13;;;;;;;1.95;0.90;;;15.60;90.70;;;;;;5032070;27;20030;-69
2022/06/14 07:46:45;;;;;;;1.17;0.50;;;15.60;90.60;;;;;;5030987;27;20038;-71
2022/06/14 07:49:18;;;;;;;0.70;0.40;;;15.60;90.90;;;;;;5029767;27;20045;-71
2022/06/14 07:51:59;;;;;;;1.77;0.35;;;15.60;90.60;;;;;;5043204;27;20629;-70
2022/06/14 07:54:41;;;;;;;2.17;0.75;;;15.60;90.60;;;;;;5027161;27;20029;-70
2022/06/14 07:57:22;;;;;;;4.57;0.82;;;15.60;90.60;;;;;;5026359;27;20056;-70
2022/06/14 08:03:02;;;;;;;5.63;3.10;;;15.60;91.00;;;;;;5019322;27;20070;-70
2022/06/14 08:05:34;;;;;;;3.05;1.80;;;15.60;91.00;;;;;;5030766;27;20030;-71
2022/06/14 08:08:04;;;;;;;4.28;1.73;;;15.60;91.10;;;;;;5039256;27;20382;-69
2022/06/14 08:10:47;;;;;;;7.13;1.55;;;15.70;91.20;;;;;;5028164;27;20045;-69
2022/06/14 08:13:25;;;;;;;1.83;1.00;;;15.70;91.40;;;;;;5084783;28;20041;-69
2022/06/14 08:15:55;;;;;;;1.67;1.10;;;15.70;91.70;;;;;;5032510;27;20041;-70
2022/06/14 08:18:37;;;;;;;3.28;1.10;;;15.70;91.80;;;;;;5036435;27;20448;-70
2022/06/14 08:21:15;;;;;;;6.07;1.50;;;15.70;91.90;;;;;;5021070;27;20030;-70
2022/06/14 08:23:52;;;;;;;3.90;1.75;;;15.70;91.90;;;;;;5029286;27;20728;-69
2022/06/14 08:26:46;;;;;;;5.95;1.52;;;15.70;91.90;;;;;;5033568;27;20033;-69
2022/06/14 08:29:45;;;;;;;5.72;1.20;;;15.70;92.00;;;;;;5025114;27;20059;-69
2022/06/14 08:32:32;;;;;;;2.65;0.80;;;15.70;92.10;;;;;;5025282;27;20489;-70
2022/06/14 08:35:05;;;;;;;1.83;0.77;;;15.70;92.10;;;;;;5025823;27;20529;-70
2022/06/14 08:37:49;;;;;;;3.08;0.80;;;15.80;92.10;;;;;;5039071;27;20030;-69
2022/06/14 08:40:48;;;;;;;3.30;0.60;;;15.80;92.20;;;;;;5039402;27;20049;-70
2022/06/14 08:43:34;;;;;;;5.05;0.80;;;15.80;92.20;;;;;;5043318;27;20049;-69
2022/06/14 08:46:22;;;;;;;2.78;1.23;;;15.80;92.10;;;;;;5041488;27;20026;-69
2022/06/14 08:49:03;;;;;;;4.85;0.73;;;15.70;92.10;;;;;;5041372;27;20075;-70
2022/06/14 08:51:51;;;;;;;5.82;0.95;;;15.70;92.20;;;;;;5044363;27;20034;-69
2022/06/14 08:54:30;;;;;;;3.15;1.00;;;15.80;92.20;;;;;;5037147;27;20419;-69
2022/06/14 08:57:06;;;;;;;3.75;1.35;;;15.80;92.20;;;;;;5033079;27;20046;-70
2022/06/14 08:59:38;;;;;;;;;;;15.80;92.20;;;;;;5040884;27;20045;-69
2022/06/14 09:02:25;;;;;;;9.63;1.98;;;15.80;92.20;;;;;;5030353;27;20435;-69
2022/06/14 09:05:10;;;;;;;4.40;1.50;;;15.80;92.20;;;;;;5032213;27;20498;-69
2022/06/14 09:08:00;;;;;;;4.95;1.10;;;15.80;92.10;;;;;;5032422;27;20033;-69
2022/06/14 09:10:48;;;;;;;6.18;1.77;;;15.80;92.10;;;;;;5027811;27;20488;-69
2022/06/14 09:13:48;;;;;;;8.10;1.20;;;15.80;92.10;;;;;;5030388;27;20532;-69
2022/06/14 09:17:03;;;;;;;4.35;1.88;;;15.80;92.00;;;;;;5042060;27;20019;-69
2022/06/14 09:19:58;;;;;;;5.32;1.20;;;15.90;92.00;;;;;;5051622;27;20029;-69
2022/06/14 09:22:34;;;;;;;3.22;1.10;;;16.00;92.00;;;;;;5028779;27;20065;-70
2022/06/14 09:25:33;;;;;;;5.35;1.95;;;16.00;92.00;;;;;;5035812;27;20035;-70
2022/06/14 09:28:19;;;;;;;9.35;2.70;;;16.10;92.00;;;;;;5032146;27;20034;-70
2022/06/14 09:31:19;;;;;;;15.93;2.30;;;16.20;92.00;;;;;;5058605;27;20035;-70
2022/06/14 09:33:58;;;;;;;6.05;1.83;;;16.10;91.70;;;;;;5050192;27;20055;-70
2022/06/14 09:36:58;;;;;;;14.30;1.35;;;16.10;91.50;;;;;;5029825;27;20037;-70
2022/06/14 09:40:00;;;;;;;4.43;1.52;;;16.10;91.50;;;;;;5022440;28;20130;-69
2022/06/14 09:42:45;;;;;;;12.68;1.88;;;16.10;91.50;;;;;;5033960;27;20042;-70
2022/06/14 09:45:15;;;;;;;11.05;1.40;;;16.10;91.50;;;;;;5045596;27;20476;-69
2022/06/14 09:48:00;;;;;;;3.72;1.20;;;16.10;91.60;;;;;;5032010;27;20033;-69
2022/06/14 09:51:06;;;;;;;6.18;1.63;;;16.10;91.70;;;;;;5038574;28;20038;-69
2022/06/14 09:53:53;;;;;;;3.05;1.30;;;16.10;91.80;;;;;;5036510;27;20057;-69
2022/06/14 09:56:44;;;;;;;6.60;1.73;;;16.10;91.80;;;;;;5035096;27;20141;-70
2022/06/14 09:59:51;;;;;;;16.83;2.50;;;16.10;91.70;;;;;;5039002;27;20023;-69
2022/06/14 10:02:53;;;;;;;17.10;2.38;;;16.00;91.60;;;;;;5001449;27;20029;-69
2022/06/14 10:05:25;;;;;;;14.13;2.70;;;16.00;91.50;;;;;;5045228;27;20476;-69
2022/06/14 10:08:26;;;;;;;8.60;1.73;;;15.90;91.50;;;;;;5043597;27;20392;-69
2022/06/14 10:11:31;;;;;;;8.32;2.22;;;15.90;91.50;;;;;;5040406;27;20403;-68
2022/06/14 10:14:07;;;;;;;3.55;1.55;;;15.90;91.60;;;;;;5043382;27;20034;-69
2022/06/14 10:17:10;;;;;;;10.13;1.58;;;15.90;91.80;;;;;;5039164;27;20141;-68
2022/06/14 10:20:10;;;;;;;10.57;1.88;;;15.90;91.80;;;;;;4992623;27;20083;-68
2022/06/14 10:22:56;;;;;;;9.48;2.33;;;15.90;91.80;;;;;;5034642;27;20061;-68
2022/06/14 10:25:30;;;;;;;;;;;15.90;91.90;;;;;;5037470;27;20042;-69
2022/06/14 10:28:17;;;;;;;6.35;2.10;;;15.90;92.00;;;;;;5043821;27;19909;-68
2022/06/14 10:31:07;;;;;;;6.63;1.80;;;15.90;92.20;;;;;;5035012;27;20041;-69
2022/06/14 10:33:43;;;;;;;3.10;1.10;;;15.90;92.20;;;;;;5031045;28;20052;-69
2022/06/14 10:36:36;;;;;;;2.92;1.60;;;15.90;92.10;;;;;;5044186;28;20037;-68
2022/06/14 10:39:38;;;;;;;2.80;0.85;;;15.90;92.00;;;;;;5033833;28;20026;-68
2022/06/14 10:42:19;;;;;;;3.35;1.10;;;15.90;91.90;;;;;;5027440;28;20523;-69
2022/06/14 10:45:06;;;;;;;4.80;1.65;;;15.90;91.80;;;;;;5032602;28;20056;-68
2022/06/14 10:47:41;;;;;;;5.82;1.20;;;15.90;91.70;;;;;;5039802;28;20042;-68
2022/06/14 10:50:20;;;;;;;1.63;0.82;;;15.90;91.70;;;;;;5031973;27;20046;-68
2022/06/14 10:53:07;;;;;;;4.93;1.10;;;16.00;91.70;;;;;;5050328;27;20024;-68
2022/06/14 10:55:36;;;;;;;4.63;1.85;;;16.00;91.70;;;;;;5050250;27;20020;-69
2022/06/14 10:58:38;;;;;;;4.07;1.38;;;16.00;91.70;;;;;;5034843;27;20524;-69
2022/06/14 11:01:13;;;;;;;3.65;1.52;;;16.00;91.60;;;;;;4989057;28;20033;-68
2022/06/14 11:04:05;;;;;;;5.78;1.17;;;16.00;91.60;;;;;;5037525;27;20029;-68
2022/06/14 11:06:50;;;;;;;6.72;2.72;;;16.00;91.60;;;;;;5030807;27;20040;-69
2022/06/14 11:09:35;;;;;;;6.25;2.80;;;16.10;91.70;;;;;;5043279;27;20038;-68
2022/06/14 11:12:20;;;;;;;37.38;7.53;;;16.10;91.70;;;;;;5036093;27;20155;-68
2022/06/14 11:15:10;;;;;;;62.70;12.47;;;16.10;91.70;;;;;;5036295;27;20031;-68
2022/06/14 11:17:58;;;;;;;56.40;10.02;;;16.00;91.70;;;;;;5039226;27;20302;-68
2022/06/14 11:20:24;;;;;;;45.33;8.80;;;16.10;91.80;;;;;;5032179;27;20427;-69
2022/06/14 11:23:21;;;;;;;31.10;9.27;;;16.10;91.80;;;;;;5047031;27;20561;-68
2022/06/14 11:26:06;;;;;;;15.98;4.50;;;16.10;91.80;;;;;;5034659;27;20055;-69
2022/06/14 11:28:41;;;;;;;7.15;2.63;;;16.00;91.80;;;;;;5040739;27;20142;-68
2022/06/14 11:31:52;;;;;;;9.57;2.22;;;16.00;91.70;;;;;;5037919;27;20049;-69
2022/06/14 11:34:26;;;;;;;6.35;4.88;;;16.00;91.70;;;;;;5034167;27;20488;-68
2022/06/14 11:37:11;;;;;;;9.55;4.78;;;16.00;91.70;;;;;;5042834;27;20090;-69
2022/06/14 11:40:29;;;;;;;5.70;3.70;;;16.00;91.60;;;;;;5046936;27;20053;-71
2022/06/14 11:43:08;;;;;;;4.55;2.08;;;16.00;91.70;;;;;;5028235;27;20033;-68
2022/06/14 11:46:01;;;;;;;6.95;2.10;;;16.00;91.90;;;;;;5047257;27;20478;-68
2022/06/14 11:48:36;;;;;;;5.10;1.40;;;16.00;91.60;;;;;;5041120;27;20048;-68
2022/06/14 11:51:40;;;;;;;2.60;1.25;;;16.00;91.50;;;;;;5036942;27;20042;-69
2022/06/14 11:54:09;;;;;;;4.60;1.65;;;16.00;91.50;;;;;;5032632;27;20049;-68
2022/06/14 11:56:56;;;;;;;3.15;1.88;;;16.00;91.50;;;;;;5041444;27;20423;-68
2022/06/14 11:59:33;;;;;;;2.72;1.33;;;16.00;91.40;;;;;;5031279;27;20151;-68
2022/06/14 12:02:32;;;;;;;3.58;1.60;;;16.00;91.40;;;;;;5033557;27;20449;-68
2022/06/14 12:05:26;;;;;;;5.50;2.05;;;16.00;91.30;;;;;;5041709;27;20052;-68
2022/06/14 12:08:20;;;;;;;2.95;2.05;;;16.00;91.30;;;;;;5039179;27;20396;-68
2022/06/14 12:11:09;;;;;;;4.80;1.83;;;16.00;91.30;;;;;;5041659;27;20056;-68
2022/06/14 12:13:54;;;;;;;2.70;1.75;;;16.00;91.40;;;;;;5039784;27;20022;-68
2022/06/14 12:16:33;;;;;;;9.97;2.83;;;16.00;91.40;;;;;;5037656;27;20082;-68
2022/06/14 12:19:21;;;;;;;11.27;3.30;;;16.00;91.50;;;;;;5022592;27;20270;-68
2022/06/14 12:28:16;;;;;;;4.32;1.85;;;16.00;91.70;;;;;;5037196;27;20435;-67
2022/06/14 12:30:44;;;;;;;23.88;3.17;;;16.00;92.00;;;;;;5033282;27;20132;-69
2022/06/14 12:33:30;;;;;;;8.35;1.80;;;16.00;92.10;;;;;;5030659;27;20025;-69
2022/06/14 12:36:35;;;;;;;9.05;2.25;;;15.90;92.10;;;;;;5028901;27;20025;-67
2022/06/14 12:39:10;;;;;;;6.47;2.00;;;16.00;92.00;;;;;;5031702;27;20033;-69
2022/06/14 12:41:43;;;;;;;4.88;1.73;;;15.90;91.90;;;;;;5050874;27;20035;-69
2022/06/14 12:44:27;;;;;;;7.85;2.40;;;15.90;91.90;;;;;;5041212;27;20032;-67
2022/06/14 12:46:57;;;;;;;6.70;1.25;;;15.90;91.90;;;;;;5033715;27;20034;-67
2022/06/14 12:49:49;;;;;;;4.63;1.75;;;15.90;91.90;;;;;;5035762;27;20034;-67
2022/06/14 12:52:27;;;;;;;2.22;1.27;;;15.90;91.90;;;;;;5037742;27;20026;-68
2022/06/14 12:55:03;;;;;;;3.75;1.48;;;15.90;91.90;;;;;;5088380;28;20504;-69
2022/06/14 12:57:42;;;;;;;5.43;1.25;;;15.90;91.80;;;;;;5036852;27;20040;-68
2022/06/14 13:00:23;;;;;;;3.92;1.10;;;15.90;91.70;;;;;;5029900;27;20050;-70
2022/06/14 13:03:03;;;;;;;2.75;1.13;;;15.90;91.60;;;;;;5036176;27;20043;-70
2022/06/14 13:05:37;;;;;;;6.93;1.80;;;15.90;91.50;;;;;;5040758;27;20049;-70
2022/06/14 13:08:30;;;;;;;6.22;1.95;;;15.90;91.40;;;;;;5037777;27;20033;-70
2022/06/14 13:11:09;;;;;;;7.95;2.97;;;15.90;91.30;;;;;;5058103;27;20051;-69
2022/06/14 13:14:00;;;;;;;6.38;1.95;;;15.90;91.20;;;;;;5028141;27;20044;-70
2022/06/14 13:16:46;;;;;;;6.43;2.50;;;15.90;91.10;;;;;;5028696;28;20034;-70
2022/06/14 13:19:35;;;;;;;4.70;1.90;;;15.90;91.30;;;;;;5035006;27;20388;-69
2022/06/14 13:22:17;;;;;;;7.20;2.42;;;15.90;91.20;;;;;;5024505;27;20056;-71
2022/06/14 13:25:14;;;;;;;8.18;2.78;;;15.90;90.90;;;;;;5043399;27;20075;-70
2022/06/14 13:27:43;;;;;;;8.18;2.85;;;15.90;90.90;;;;;;5027759;27;20036;-70
2022/06/14 13:30:38;;;;;;;7.75;2.88;;;15.90;90.90;;;;;;5028988;27;20082;-70
2022/06/14 13:33:24;;;;;;;6.10;2.63;;;15.90;90.90;;;;;;5037316;27;20037;-67
2022/06/14 13:36:12;;;;;;;4.97;2.25;;;15.90;91.00;;;;;;5032552;27;20118;-70
2022/06/14 13:38:59;;;;;;;7.60;3.50;;;15.90;91.00;;;;;;5039088;27;20038;-68
2022/06/14 13:41:25;;;;;;;5.65;1.83;;;16.00;91.10;;;;;;5046684;28;20140;-68
2022/06/14 13:44:20;;;;;;;8.40;2.42;;;15.90;91.10;;;;;;5036598;27;20041;-70
2022/06/14 13:47:00;;;;;;;8.38;1.92;;;16.00;91.20;;;;;;5032714;27;20027;-70
2022/06/14 13:49:34;;;;;;;10.70;2.25;;;16.00;91.20;;;;;;5029926;28;20041;-70
2022/06/14 13:52:22;;;;;;;11.85;3.00;;;16.00;91.20;;;;;;5031376;27;20034;-70
2022/06/14 13:55:25;;;;;;;8.38;2.95;;;16.10;91.30;;;;;;5044033;27;20090;-69
2022/06/14 13:57:55;;;;;;;6.72;2.40;;;16.10;91.20;;;;;;4983741;27;20075;-70
2022/06/14 14:00:44;;;;;;;11.60;2.85;;;16.10;91.20;;;;;;5030244;27;20357;-69
2022/06/14 14:03:26;;;;;;;11.23;2.60;;;16.10;91.20;;;;;;5024826;27;20050;-69
2022/06/14 14:06:31;;;;;;;5.22;1.92;;;16.10;91.20;;;;;;5036799;27;20049;-70
2022/06/14 14:09:15;;;;;;;11.23;2.45;;;16.10;91.20;;;;;;5024504;27;20539;-70
2022/06/14 14:12:12;;;;;;;8.48;2.78;;;16.10;91.10;;;;;;5035570;27;21706;-71
2022/06/14 14:15:11;;;;;;;6.30;2.42;;;16.00;91.00;;;;;;5031029;28;20030;-71
2022/06/14 14:17:47;;;;;;;9.02;2.67;;;16.10;91.00;;;;;;5030121;28;20025;-70
2022/06/14 14:20:38;;;;;;;11.80;2.90;;;16.00;91.10;;;;;;5037127;27;20515;-71
2022/06/14 14:23:24;;;;;;;10.13;3.03;;;16.00;91.40;;;;;;5047040;27;20030;-70
2022/06/14 14:26:11;;;;;;;6.22;2.17;;;16.00;91.60;;;;;;5036508;28;20469;-71
2022/06/14 14:29:03;;;;;;;15.25;2.83;;;16.00;91.70;;;;;;5043422;27;20044;-70
2022/06/14 14:31:39;;;;;;;27.27;16.30;;;16.00;91.80;;;;;;5032288;27;20037;-70
2022/06/14 14:34:27;;;;;;;18.35;9.45;;;16.00;91.80;;;;;;5039226;28;20031;-73
2022/06/14 14:36:53;;;;;;;12.95;5.13;;;15.90;91.80;;;;;;5023099;28;20036;-70
2022/06/14 14:39:32;;;;;;;11.57;3.75;;;15.90;91.90;;;;;;5030850;28;20686;-71
2022/06/14 14:42:02;;;;;;;5.63;2.90;;;15.90;91.90;;;;;;5034996;28;20504;-71
2022/06/14 14:44:32;;;;;;;6.35;1.75;;;15.90;91.90;;;;;;5041839;28;20043;-69
2022/06/14 14:47:21;;;;;;;4.85;2.00;;;15.90;91.80;;;;;;5035182;28;20030;-71